Time;durP1;ratioP1;P1;durP2;ratioP2;P2;SDS_P1;SDS_P2;PMS_P1;PMS_P2;Temp;Humidity;BMP_temperature;BMP_pressure;BME280_temperature;BME280_humidity;BME280_pressure;Samples;Min_cycle;Max_cycle;Signal;HPM_P1;HPM_P2
2023/10/05 00:01:05;;;;;;;6.90;3.22;;;;;;;;;;6071686;23;20198;-92
2023/10/05 00:04:15;;;;;;;8.02;3.67;;;;;;;;;;6089612;23;20194;-91
2023/10/05 00:07:23;;;;;;;6.85;3.65;;;;;;;;;;6086899;23;20211;-92
2023/10/05 00:10:30;;;;;;;6.88;4.10;;;;;;;;;;6084550;23;20178;-93
2023/10/05 00:13:38;;;;;;;8.52;3.42;;;;;;;;;;6085578;23;20165;-90
2023/10/05 00:16:48;;;;;;;7.00;3.35;;;;;;;;;;6087065;23;20216;-90
2023/10/05 00:19:57;;;;;;;8.18;3.33;;;;;;;;;;6085645;23;20506;-93
2023/10/05 00:23:03;;;;;;;8.40;3.45;;;;;;;;;;6086192;23;20161;-92
2023/10/05 00:26:10;;;;;;;6.72;3.85;;;;;;;;;;6085608;23;20230;-90
2023/10/05 00:29:19;;;;;;;8.63;3.90;;;;;;;;;;6085928;23;20178;-92
2023/10/05 00:32:26;;;;;;;7.20;4.18;;;;;;;;;;6087074;23;20190;-91
2023/10/05 00:35:33;;;;;;;7.65;3.78;;;;;;;;;;6086939;23;20631;-92
2023/10/05 00:38:38;;;;;;;8.45;3.90;;;;;;;;;;6070442;23;20176;-91
2023/10/05 00:41:46;;;;;;;10.10;4.20;;;;;;;;;;6086408;23;20295;-90
2023/10/05 00:44:53;;;;;;;8.80;4.38;;;;;;;;;;6089200;23;20175;-93
2023/10/05 00:48:09;;;;;;;12.57;3.70;;;;;;;;;;6087338;23;20250;-93
2023/10/05 00:51:23;;;;;;;6.80;3.53;;;;;;;;;;6069489;23;20200;-92
2023/10/05 00:54:31;;;;;;;6.70;3.85;;;;;;;;;;6085799;23;20500;-93
2023/10/05 00:57:38;;;;;;;5.82;3.47;;;;;;;;;;6070256;23;20273;-91
2023/10/05 01:00:50;;;;;;;9.63;3.50;;;;;;;;;;6085342;23;20197;-94
2023/10/05 01:07:39;;;;;;;10.00;3.60;;;;;;;;;;6066014;23;20215;-92
2023/10/05 01:10:48;;;;;;;5.82;3.45;;;;;;;;;;6066141;23;20626;-90
2023/10/05 01:13:58;;;;;;;7.15;3.17;;;;;;;;;;6083852;23;20242;-94
2023/10/05 01:17:05;;;;;;;6.70;3.35;;;;;;;;;;6083817;23;20247;-95
2023/10/05 01:20:22;;;;;;;5.55;3.20;;;;;;;;;;6082888;23;20174;-93
2023/10/05 01:23:37;;;;;;;7.65;3.20;;;;;;;;;;6083654;23;20210;-89
2023/10/05 01:26:44;;;;;;;7.50;3.80;;;;;;;;;;6084581;23;20262;-93
2023/10/05 01:29:49;;;;;;;8.80;3.67;;;;;;;;;;6083508;23;20194;-95
2023/10/05 01:32:55;;;;;;;7.45;3.90;;;;;;;;;;6083617;23;20202;-93
2023/10/05 01:36:02;;;;;;;9.18;4.13;;;;;;;;;;6085701;23;20228;-90
2023/10/05 01:39:12;;;;;;;11.38;4.75;;;;;;;;;;6084742;23;20198;-88
2023/10/05 01:42:18;;;;;;;7.30;4.03;;;;;;;;;;6083467;23;20202;-94
2023/10/05 01:45:29;;;;;;;12.07;4.85;;;;;;;;;;6083697;23;20611;-93
2023/10/05 01:48:35;;;;;;;7.85;4.13;;;;;;;;;;6082049;23;20225;-91
2023/10/05 01:51:40;;;;;;;8.88;4.35;;;;;;;;;;6082982;23;20614;-92
2023/10/05 01:54:47;;;;;;;9.48;4.32;;;;;;;;;;6083557;23;20615;-94
2023/10/05 01:57:54;;;;;;;8.23;4.25;;;;;;;;;;6085249;23;20175;-93
2023/10/05 02:00:59;;;;;;;13.48;4.03;;;;;;;;;;6082858;23;20203;-92
2023/10/05 02:04:05;;;;;;;14.10;4.30;;;;;;;;;;6083259;23;20182;-93
2023/10/05 02:07:11;;;;;;;8.93;4.90;;;;;;;;;;6083941;23;20215;-91
2023/10/05 02:10:21;;;;;;;12.55;4.78;;;;;;;;;;6084744;23;20195;-91
2023/10/05 02:13:29;;;;;;;26.05;4.80;;;;;;;;;;6068390;23;20187;-94
2023/10/05 02:16:35;;;;;;;9.95;4.47;;;;;;;;;;6083951;23;20231;-93
2023/10/05 02:19:42;;;;;;;10.75;4.60;;;;;;;;;;6066156;23;20178;-93
2023/10/05 02:22:55;;;;;;;13.43;4.70;;;;;;;;;;6082890;23;20219;-93
2023/10/05 02:26:09;;;;;;;12.70;4.60;;;;;;;;;;6084599;23;20163;-93
2023/10/05 02:29:15;;;;;;;9.80;4.38;;;;;;;;;;6083728;23;20174;-92
2023/10/05 02:32:23;;;;;;;7.07;3.72;;;;;;;;;;6065911;23;20198;-93
2023/10/05 02:35:33;;;;;;;6.07;4.05;;;;;;;;;;6068031;23;20626;-93
2023/10/05 02:38:47;;;;;;;7.15;3.85;;;;;;;;;;6084842;23;20170;-94
2023/10/05 02:41:56;;;;;;;8.23;3.90;;;;;;;;;;6085071;23;20241;-93
2023/10/05 02:45:05;;;;;;;5.50;3.25;;;;;;;;;;6069657;23;20192;-90
2023/10/05 02:48:10;;;;;;;8.32;4.03;;;;;;;;;;6086994;23;20167;-92
2023/10/05 02:51:18;;;;;;;6.95;3.85;;;;;;;;;;6073872;23;20187;-92
2023/10/05 02:54:25;;;;;;;5.80;3.97;;;;;;;;;;6087299;23;20174;-93
2023/10/05 02:57:32;;;;;;;6.95;4.50;;;;;;;;;;6086155;23;20265;-93
2023/10/05 03:00:38;;;;;;;7.00;4.00;;;;;;;;;;6087112;23;20154;-94
2023/10/05 03:03:44;;;;;;;7.90;4.38;;;;;;;;;;6086077;23;20182;-92
2023/10/05 03:06:52;;;;;;;22.30;5.00;;;;;;;;;;6087100;23;20175;-90
2023/10/05 03:09:59;;;;;;;12.18;4.78;;;;;;;;;;6085009;23;20195;-92
2023/10/05 03:13:07;;;;;;;10.82;4.78;;;;;;;;;;6084801;23;20222;-89
2023/10/05 03:16:16;;;;;;;25.27;5.47;;;;;;;;;;6085770;23;20182;-91
2023/10/05 03:19:22;;;;;;;7.80;4.85;;;;;;;;;;6067230;23;20174;-91
2023/10/05 03:22:30;;;;;;;7.55;4.43;;;;;;;;;;6085033;23;20202;-92
2023/10/05 03:25:37;;;;;;;12.00;4.20;;;;;;;;;;6084789;23;20170;-91
2023/10/05 03:28:44;;;;;;;13.18;5.03;;;;;;;;;;6085039;23;20155;-92
2023/10/05 03:31:53;;;;;;;20.58;5.00;;;;;;;;;;6083779;23;20231;-90
2023/10/05 03:35:00;;;;;;;15.80;4.65;;;;;;;;;;6071718;23;20196;-93
2023/10/05 03:38:08;;;;;;;9.20;4.35;;;;;;;;;;6069892;23;20170;-93
2023/10/05 03:41:16;;;;;;;15.80;4.47;;;;;;;;;;6067005;23;20287;-91
2023/10/05 03:44:25;;;;;;;8.05;4.70;;;;;;;;;;6084139;23;20161;-92
2023/10/05 03:47:30;;;;;;;9.43;5.50;;;;;;;;;;6082383;23;20191;-89
2023/10/05 03:50:36;;;;;;;10.15;4.45;;;;;;;;;;6083233;23;20171;-92
2023/10/05 03:53:41;;;;;;;8.23;4.93;;;;;;;;;;6084880;23;20191;-91
2023/10/05 03:56:50;;;;;;;16.60;4.85;;;;;;;;;;6083509;23;20602;-91
2023/10/05 03:59:57;;;;;;;8.38;4.82;;;;;;;;;;6084941;23;20183;-94
2023/10/05 04:03:03;;;;;;;12.55;4.88;;;;;;;;;;6084285;23;20201;-93
2023/10/05 04:06:17;;;;;;;10.90;4.93;;;;;;;;;;6084610;23;20196;-89
2023/10/05 04:09:22;;;;;;;10.18;5.22;;;;;;;;;;6084392;23;20171;-90
2023/10/05 04:12:31;;;;;;;13.25;5.15;;;;;;;;;;6085268;23;20174;-92
2023/10/05 04:15:42;;;;;;;14.68;5.43;;;;;;;;;;6087004;23;20219;-91
2023/10/05 04:18:49;;;;;;;26.55;6.28;;;;;;;;;;6070503;23;20258;-92
2023/10/05 04:21:57;;;;;;;21.85;5.78;;;;;;;;;;6086469;23;20219;-89
2023/10/05 04:25:04;;;;;;;8.25;4.47;;;;;;;;;;6069594;23;20158;-93
2023/10/05 04:28:11;;;;;;;17.88;5.30;;;;;;;;;;6084385;23;20174;-88
2023/10/05 04:31:24;;;;;;;10.65;4.97;;;;;;;;;;6067988;23;20194;-92
2023/10/05 04:34:31;;;;;;;22.35;5.38;;;;;;;;;;6084803;23;20247;-90
2023/10/05 04:37:36;;;;;;;27.13;5.90;;;;;;;;;;6084729;23;20198;-88
2023/10/05 04:40:42;;;;;;;14.68;5.20;;;;;;;;;;6088239;23;20220;-89
2023/10/05 04:43:50;;;;;;;22.80;7.88;;;;;;;;;;6083505;23;20173;-92
2023/10/05 04:46:57;;;;;;;15.82;6.13;;;;;;;;;;6085390;23;20171;-92
2023/10/05 04:53:26;;;;;;;8.88;4.93;;;;;;;;;;6067811;23;20195;-93
2023/10/05 04:56:43;;;;;;;10.32;5.18;;;;;;;;;;6084042;23;20171;-89
2023/10/05 04:59:59;;;;;;;11.68;5.05;;;;;;;;;;6086171;23;20170;-94
2023/10/05 05:03:32;;;;;;;9.90;5.05;;;;;;;;;;6070230;23;20195;-93
2023/10/05 05:06:37;;;;;;;13.10;5.20;;;;;;;;;;6069408;23;20191;-92
2023/10/05 05:09:45;;;;;;;11.10;5.40;;;;;;;;;;6087305;23;20171;-92
2023/10/05 05:12:53;;;;;;;10.82;5.43;;;;;;;;;;6086722;23;20158;-89
2023/10/05 05:16:00;;;;;;;10.80;5.78;;;;;;;;;;6071543;23;20187;-91
2023/10/05 05:25:00;;;;;;;13.60;5.20;;;;;;;;;;6082262;23;20214;-87
2023/10/05 05:28:07;;;;;;;9.25;5.07;;;;;;;;;;6069188;23;20166;-91
2023/10/05 05:31:16;;;;;;;8.10;4.90;;;;;;;;;;6070580;23;20174;-89
2023/10/05 05:34:31;;;;;;;8.75;4.63;;;;;;;;;;6085149;23;20183;-91
2023/10/05 05:40:57;;;;;;;10.73;5.15;;;;;;;;;;6067794;23;20205;-92
2023/10/05 05:44:06;;;;;;;8.48;4.63;;;;;;;;;;6087676;23;20201;-92
2023/10/05 05:47:14;;;;;;;10.85;5.03;;;;;;;;;;6086784;23;20173;-94
2023/10/05 05:50:23;;;;;;;7.85;4.38;;;;;;;;;;6074081;23;20231;-91
2023/10/05 05:53:33;;;;;;;12.18;4.60;;;;;;;;;;6087944;23;20170;-93
2023/10/05 06:00:14;;;;;;;12.10;5.72;;;;;;;;;;6071349;23;20187;-92
2023/10/05 06:03:21;;;;;;;18.30;5.53;;;;;;;;;;6087236;23;20274;-92
2023/10/05 06:06:26;;;;;;;10.93;5.75;;;;;;;;;;6088440;23;20647;-93
2023/10/05 06:09:33;;;;;;;24.50;5.88;;;;;;;;;;6087460;23;20170;-93
2023/10/05 06:12:41;;;;;;;7.75;4.70;;;;;;;;;;6071204;23;20178;-94
2023/10/05 06:15:46;;;;;;;10.13;4.97;;;;;;;;;;6084152;23;20171;-92
2023/10/05 06:18:54;;;;;;;8.38;4.78;;;;;;;;;;6083425;23;20262;-89
2023/10/05 06:22:01;;;;;;;8.00;4.68;;;;;;;;;;6067649;23;20207;-93
2023/10/05 06:25:08;;;;;;;10.55;5.15;;;;;;;;;;6083109;23;20190;-91
2023/10/05 06:28:14;;;;;;;11.63;5.15;;;;;;;;;;6084629;23;20256;-93
2023/10/05 06:31:22;;;;;;;10.63;5.43;;;;;;;;;;6085043;23;20188;-90
2023/10/05 06:34:27;;;;;;;10.48;5.57;;;;;;;;;;6069604;23;20165;-92
2023/10/05 06:37:33;;;;;;;24.85;5.95;;;;;;;;;;6084615;23;20214;-91
2023/10/05 06:40:38;;;;;;;9.95;5.07;;;;;;;;;;6083678;23;20150;-91
2023/10/05 06:43:48;;;;;;;8.63;5.20;;;;;;;;;;6084103;23;20198;-93
2023/10/05 09:14:17;;;;;;;16.77;6.82;;;;;;;;;;6032740;23;20219;-90
2023/10/05 09:20:48;;;;;;;15.70;7.35;;;;;;;;;;6041142;23;20167;-94
2023/10/05 09:23:55;;;;;;;13.55;7.07;;;;;;;;;;6041158;23;20202;-92
2023/10/05 09:27:12;;;;;;;18.00;6.88;;;;;;;;;;6041868;23;20154;-92
2023/10/05 09:30:22;;;;;;;14.48;7.28;;;;;;;;;;6041283;23;20171;-91
2023/10/05 09:33:33;;;;;;;15.32;7.45;;;;;;;;;;6041183;23;20175;-92
2023/10/05 09:36:40;;;;;;;12.90;7.25;;;;;;;;;;6041873;23;20229;-91
2023/10/05 09:43:11;;;;;;;13.10;7.03;;;;;;;;;;6044187;23;20186;-93
2023/10/05 10:21:35;;;;;;;15.70;6.07;;;;;;;;;;6066801;23;20223;-93
2023/10/05 10:24:41;;;;;;;8.63;4.38;;;;;;;;;;6070616;23;20179;-94
2023/10/05 10:27:50;;;;;;;9.45;4.50;;;;;;;;;;6067708;23;20230;-91
2023/10/05 10:31:18;;;;;;;11.73;4.43;;;;;;;;;;6069680;23;20174;-93
2023/10/05 10:34:42;;;;;;;14.57;3.97;;;;;;;;;;6068334;23;20228;-94
2023/10/05 10:41:15;;;;;;;8.27;3.15;;;;;;;;;;6086382;23;20198;-94
2023/10/05 10:44:24;;;;;;;8.88;2.92;;;;;;;;;;6067783;23;20246;-93
2023/10/05 10:47:36;;;;;;;8.10;2.83;;;;;;;;;;6067301;23;20204;-92
2023/10/05 10:50:42;;;;;;;7.55;3.58;;;;;;;;;;6067325;23;20211;-93
2023/10/05 10:53:52;;;;;;;5.80;3.22;;;;;;;;;;6067885;23;20227;-91
2023/10/05 10:57:01;;;;;;;8.38;3.28;;;;;;;;;;6069245;23;20214;-93
2023/10/05 11:03:30;;;;;;;6.38;3.30;;;;;;;;;;6071547;23;20189;-93
2023/10/05 11:06:48;;;;;;;10.52;3.28;;;;;;;;;;6070992;23;20199;-91
2023/10/05 11:10:06;;;;;;;7.38;3.13;;;;;;;;;;6086522;23;20195;-92
2023/10/05 11:13:17;;;;;;;8.20;2.97;;;;;;;;;;6068781;23;20196;-89
2023/10/05 11:16:26;;;;;;;8.52;3.25;;;;;;;;;;6068925;23;20220;-93
2023/10/05 11:19:36;;;;;;;5.18;2.95;;;;;;;;;;6069759;23;20187;-88
2023/10/05 11:22:44;;;;;;;8.63;3.10;;;;;;;;;;6071349;23;20194;-91
2023/10/05 12:51:04;;;;;;;6.20;2.03;;;;;;;;;;6030773;23;20255;-90
2023/10/05 12:54:18;;;;;;;9.93;2.47;;;;;;;;;;6040004;23;20175;-91
2023/10/05 12:57:24;;;;;;;6.65;2.17;;;;;;;;;;6038242;23;20225;-92
2023/10/05 13:00:31;;;;;;;6.82;2.70;;;;;;;;;;6039618;23;20175;-92
2023/10/05 13:30:05;;;;;;;6.18;2.30;;;;;;;;;;6015184;23;20415;-89
2023/10/05 13:33:17;;;;;;;5.00;2.33;;;;;;;;;;6116268;23;20181;-91
2023/10/05 13:36:33;;;;;;;7.40;2.80;;;;;;;;;;6082431;23;20233;-87
2023/10/05 13:39:44;;;;;;;6.65;2.22;;;;;;;;;;6096289;23;20178;-91
2023/10/05 13:46:15;;;;;;;10.80;3.70;;;;;;;;;;6098265;23;20186;-90
2023/10/05 13:49:22;;;;;;;11.25;2.72;;;;;;;;;;6115049;23;20169;-89
2023/10/05 13:52:27;;;;;;;6.00;2.28;;;;;;;;;;6099813;23;20169;-93
2023/10/05 13:55:38;;;;;;;5.20;2.63;;;;;;;;;;6114733;23;20178;-91
2023/10/05 13:58:46;;;;;;;9.18;2.20;;;;;;;;;;6116161;23;20174;-90
2023/10/05 14:01:59;;;;;;;7.80;2.30;;;;;;;;;;6114189;23;20166;-91
2023/10/05 14:05:05;;;;;;;4.15;1.90;;;;;;;;;;6098292;23;20161;-90
2023/10/05 14:08:17;;;;;;;8.27;2.40;;;;;;;;;;6114464;23;20169;-90
2023/10/05 14:11:22;;;;;;;11.07;4.72;;;;;;;;;;6098616;23;20242;-92
2023/10/05 14:14:27;;;;;;;8.15;2.70;;;;;;;;;;6115086;23;20178;-92
2023/10/05 14:17:35;;;;;;;8.05;2.10;;;;;;;;;;6112088;23;20193;-93
2023/10/05 14:20:40;;;;;;;8.65;2.65;;;;;;;;;;6097412;23;20174;-90
2023/10/05 14:27:05;;;;;;;6.60;2.42;;;;;;;;;;6099237;23;20170;-93
2023/10/05 14:30:14;;;;;;;5.88;2.03;;;;;;;;;;6096177;23;20178;-91
2023/10/05 14:33:22;;;;;;;9.73;2.30;;;;;;;;;;6113614;23;20172;-91
2023/10/05 14:36:32;;;;;;;7.97;2.67;;;;;;;;;;6115078;23;20166;-92
2023/10/05 14:39:39;;;;;;;11.43;2.85;;;;;;;;;;6115939;23;20166;-91
2023/10/05 14:42:49;;;;;;;13.57;2.50;;;;;;;;;;6080793;23;20240;-91
2023/10/05 14:45:58;;;;;;;9.20;2.85;;;;;;;;;;6116401;23;20174;-87
2023/10/05 14:49:09;;;;;;;11.10;4.10;;;;;;;;;;6098455;23;20194;-92
2023/10/05 14:52:16;;;;;;;11.85;2.67;;;;;;;;;;6114971;23;20215;-92
2023/10/05 14:55:33;;;;;;;7.60;2.75;;;;;;;;;;6098816;23;20186;-90
2023/10/05 14:58:43;;;;;;;7.97;2.63;;;;;;;;;;6097410;23;20206;-91
2023/10/05 15:01:49;;;;;;;13.48;3.10;;;;;;;;;;6097954;23;20215;-89
2023/10/05 15:05:01;;;;;;;7.90;2.97;;;;;;;;;;6115299;23;20170;-89
2023/10/05 15:08:08;;;;;;;10.98;2.90;;;;;;;;;;6115282;23;20170;-92
2023/10/05 15:14:35;;;;;;;7.13;2.60;;;;;;;;;;6098821;23;20202;-93
2023/10/05 15:17:41;;;;;;;16.38;3.20;;;;;;;;;;6114632;23;20181;-88
2023/10/05 15:20:49;;;;;;;10.38;2.67;;;;;;;;;;6098296;23;20569;-90
2023/10/05 15:23:58;;;;;;;5.97;2.50;;;;;;;;;;6114922;23;20250;-89
2023/10/05 15:27:04;;;;;;;9.30;2.90;;;;;;;;;;6113836;23;20166;-88
2023/10/05 15:30:19;;;;;;;9.93;2.25;;;;;;;;;;6096997;23;20178;-88
2023/10/05 15:33:26;;;;;;;8.10;2.63;;;;;;;;;;6112691;23;20166;-89
2023/10/05 15:36:35;;;;;;;10.00;2.97;;;;;;;;;;6096529;23;20171;-90
2023/10/05 15:39:40;;;;;;;10.10;2.78;;;;;;;;;;6093846;23;20162;-91
2023/10/05 15:42:46;;;;;;;17.95;3.88;;;;;;;;;;6109394;23;20174;-91
2023/10/05 15:45:56;;;;;;;9.63;2.80;;;;;;;;;;6107990;23;20228;-90
2023/10/05 15:49:01;;;;;;;8.25;2.58;;;;;;;;;;6091527;23;20178;-90
2023/10/05 15:52:08;;;;;;;8.23;2.25;;;;;;;;;;6093079;23;20243;-91
2023/10/05 15:55:15;;;;;;;7.05;2.40;;;;;;;;;;6112902;23;20174;-89
2023/10/05 15:58:20;;;;;;;14.73;6.93;;;;;;;;;;6094067;23;20170;-90
2023/10/05 16:01:26;;;;;;;18.60;7.13;;;;;;;;;;6111881;23;20502;-90
2023/10/05 16:04:33;;;;;;;6.63;2.92;;;;;;;;;;6110420;23;20181;-91
2023/10/05 16:07:40;;;;;;;7.53;2.15;;;;;;;;;;6110931;23;20259;-89
2023/10/05 16:10:46;;;;;;;8.77;2.80;;;;;;;;;;6112102;23;20190;-91
2023/10/05 16:13:51;;;;;;;6.75;2.67;;;;;;;;;;6111796;23;20225;-88
2023/10/05 16:16:57;;;;;;;12.65;3.08;;;;;;;;;;6112273;23;20186;-90
2023/10/05 16:20:02;;;;;;;10.52;2.90;;;;;;;;;;6110322;23;20170;-90
2023/10/05 16:23:11;;;;;;;14.07;3.60;;;;;;;;;;6094115;23;20177;-91
2023/10/05 16:26:18;;;;;;;8.15;3.20;;;;;;;;;;6110110;23;20222;-88
2023/10/05 16:29:23;;;;;;;58.05;27.27;;;;;;;;;;6093708;23;20174;-88
2023/10/05 16:32:28;;;;;;;28.50;12.32;;;;;;;;;;6111975;23;20252;-90
2023/10/05 16:35:35;;;;;;;29.75;13.02;;;;;;;;;;6115657;23;20614;-89
2023/10/05 16:38:42;;;;;;;10.30;3.40;;;;;;;;;;6095746;23;20166;-90
2023/10/05 16:41:48;;;;;;;8.90;3.40;;;;;;;;;;6112961;23;20174;-89
2023/10/05 16:44:53;;;;;;;11.85;4.07;;;;;;;;;;6112922;23;20214;-90
2023/10/05 16:47:59;;;;;;;16.17;3.63;;;;;;;;;;6112997;23;20166;-89
2023/10/05 16:51:05;;;;;;;11.25;3.20;;;;;;;;;;6095945;23;20169;-91
2023/10/05 16:54:13;;;;;;;14.88;3.88;;;;;;;;;;6094818;23;20257;-90
2023/10/05 16:57:18;;;;;;;12.65;4.07;;;;;;;;;;6113761;23;20174;-90
2023/10/05 17:00:26;;;;;;;15.35;3.42;;;;;;;;;;6096316;23;20174;-92
2023/10/05 17:03:34;;;;;;;12.20;3.58;;;;;;;;;;6098153;23;20247;-89
2023/10/05 17:06:39;;;;;;;12.20;5.07;;;;;;;;;;6113896;23;20226;-90
2023/10/05 17:09:46;;;;;;;22.65;8.15;;;;;;;;;;6113446;23;20183;-90
2023/10/05 17:12:58;;;;;;;48.50;19.52;;;;;;;;;;6113285;23;20157;-90
2023/10/05 17:16:03;;;;;;;35.70;16.48;;;;;;;;;;6114563;23;20222;-92
2023/10/05 17:19:08;;;;;;;10.95;4.63;;;;;;;;;;6111351;23;20182;-90
2023/10/05 17:22:14;;;;;;;15.30;4.35;;;;;;;;;;6113497;23;20166;-91
2023/10/05 17:25:22;;;;;;;11.05;4.05;;;;;;;;;;6112693;23;20212;-90
2023/10/05 17:28:28;;;;;;;15.25;3.70;;;;;;;;;;6096009;23;20282;-90
2023/10/05 17:31:35;;;;;;;13.43;4.65;;;;;;;;;;6114600;23;20218;-92
2023/10/05 17:34:42;;;;;;;17.10;5.97;;;;;;;;;;6112782;23;20290;-88
2023/10/05 17:41:08;;;;;;;11.82;4.82;;;;;;;;;;6095682;23;20642;-91
2023/10/05 17:44:13;;;;;;;11.30;3.88;;;;;;;;;;6112315;23;20277;-90
2023/10/05 17:47:18;;;;;;;53.55;25.95;;;;;;;;;;6095084;23;20173;-90
2023/10/05 17:50:23;;;;;;;11.07;4.45;;;;;;;;;;6110455;23;20174;-91
2023/10/05 17:53:29;;;;;;;15.07;3.88;;;;;;;;;;6112955;23;20170;-90
2023/10/05 17:56:36;;;;;;;11.90;3.85;;;;;;;;;;6111988;23;20261;-90
2023/10/05 17:59:41;;;;;;;8.82;3.25;;;;;;;;;;6110375;23;20508;-90
2023/10/05 18:02:47;;;;;;;14.00;4.22;;;;;;;;;;6092923;23;20191;-92
2023/10/05 18:05:54;;;;;;;11.77;4.65;;;;;;;;;;6110439;23;20232;-90
2023/10/05 18:09:04;;;;;;;20.92;5.00;;;;;;;;;;6111494;23;20178;-92
2023/10/05 18:12:12;;;;;;;19.65;6.95;;;;;;;;;;6109941;23;20176;-90
2023/10/05 18:15:21;;;;;;;12.82;4.90;;;;;;;;;;6109216;23;20622;-90
2023/10/05 18:18:27;;;;;;;16.52;3.92;;;;;;;;;;6111207;23;20622;-90
2023/10/05 18:21:32;;;;;;;13.93;4.25;;;;;;;;;;6112550;23;20157;-91
2023/10/05 18:24:37;;;;;;;13.75;5.20;;;;;;;;;;6095666;23;20196;-92
2023/10/05 18:27:45;;;;;;;13.48;4.45;;;;;;;;;;6112286;23;20630;-91
2023/10/05 18:30:52;;;;;;;17.98;4.45;;;;;;;;;;6111473;23;20223;-91
2023/10/05 18:33:57;;;;;;;11.65;4.18;;;;;;;;;;6095096;23;20177;-90
2023/10/05 18:37:03;;;;;;;11.60;4.03;;;;;;;;;;6111133;23;20170;-91
2023/10/05 18:40:10;;;;;;;10.85;4.10;;;;;;;;;;6096759;23;20161;-91
2023/10/05 18:43:21;;;;;;;13.13;4.10;;;;;;;;;;6095089;23;20170;-90
2023/10/05 18:46:26;;;;;;;11.43;3.30;;;;;;;;;;6094671;23;20198;-90
2023/10/05 18:49:31;;;;;;;7.95;3.65;;;;;;;;;;6112852;23;20173;-90
2023/10/05 18:52:37;;;;;;;14.23;6.05;;;;;;;;;;6111330;23;20226;-89
2023/10/05 18:55:42;;;;;;;7.30;2.67;;;;;;;;;;6113426;23;20173;-91
2023/10/05 18:58:49;;;;;;;8.88;2.75;;;;;;;;;;6095570;23;20287;-90
2023/10/05 19:05:15;;;;;;;9.30;3.08;;;;;;;;;;6098034;23;20193;-91
2023/10/05 19:08:20;;;;;;;9.02;4.40;;;;;;;;;;6111643;23;20254;-90
2023/10/05 19:11:26;;;;;;;6.22;2.60;;;;;;;;;;6112885;23;20174;-92
2023/10/05 19:14:33;;;;;;;11.13;3.17;;;;;;;;;;6115332;23;20170;-90
2023/10/05 19:17:39;;;;;;;8.20;2.53;;;;;;;;;;6113446;23;20157;-91
2023/10/05 19:20:45;;;;;;;7.22;3.20;;;;;;;;;;6114294;23;20165;-92
2023/10/05 19:23:51;;;;;;;6.88;2.80;;;;;;;;;;6111254;23;20291;-90
2023/10/05 19:26:57;;;;;;;10.95;3.35;;;;;;;;;;6115002;23;20223;-92
2023/10/05 19:30:05;;;;;;;10.20;2.88;;;;;;;;;;6117576;23;20177;-90
2023/10/05 19:33:12;;;;;;;8.70;3.20;;;;;;;;;;6117194;23;20177;-90
2023/10/05 19:36:18;;;;;;;11.32;3.60;;;;;;;;;;6117651;23;20223;-91
2023/10/05 19:39:24;;;;;;;10.95;4.03;;;;;;;;;;6099742;23;20214;-90
2023/10/05 19:42:30;;;;;;;9.10;3.75;;;;;;;;;;6099377;23;20253;-89
2023/10/05 19:45:38;;;;;;;12.00;3.80;;;;;;;;;;6097924;23;20193;-92
2023/10/05 19:48:43;;;;;;;14.10;5.78;;;;;;;;;;6113517;23;20173;-91
2023/10/05 19:51:49;;;;;;;13.25;4.53;;;;;;;;;;6113164;23;20173;-91
2023/10/05 19:54:56;;;;;;;12.07;4.88;;;;;;;;;;6114169;23;20158;-92
2023/10/05 19:58:05;;;;;;;13.00;4.03;;;;;;;;;;6113680;23;20170;-90
2023/10/05 20:01:25;;;;;;;9.50;4.13;;;;;;;;;;6119648;23;20232;-92
2023/10/05 20:04:33;;;;;;;10.68;3.80;;;;;;;;;;6095274;23;20238;-92
2023/10/05 20:07:39;;;;;;;8.05;3.88;;;;;;;;;;6111109;23;20161;-92
2023/10/05 20:10:44;;;;;;;7.75;4.07;;;;;;;;;;6111781;23;20230;-90
2023/10/05 20:13:49;;;;;;;14.10;4.00;;;;;;;;;;6113495;23;20150;-93
2023/10/05 20:16:54;;;;;;;7.05;3.50;;;;;;;;;;6112627;23;20178;-89
2023/10/05 20:20:11;;;;;;;14.00;4.20;;;;;;;;;;6114857;23;20166;-92
2023/10/05 20:23:16;;;;;;;9.15;3.72;;;;;;;;;;6097592;23;20222;-89
2023/10/05 20:26:21;;;;;;;8.52;3.55;;;;;;;;;;6114089;23;20261;-92
2023/10/05 20:29:30;;;;;;;8.70;4.00;;;;;;;;;;6116973;23;20258;-91
2023/10/05 20:32:35;;;;;;;9.20;3.22;;;;;;;;;;6117263;23;20170;-89
2023/10/05 20:35:42;;;;;;;7.95;3.63;;;;;;;;;;6116379;23;20153;-90
2023/10/05 20:38:49;;;;;;;11.05;4.05;;;;;;;;;;6100299;23;20199;-89
2023/10/05 20:41:56;;;;;;;12.18;4.20;;;;;;;;;;6115225;23;20145;-90
2023/10/05 20:45:02;;;;;;;10.13;3.75;;;;;;;;;;6115213;23;20349;-92
2023/10/05 20:48:09;;;;;;;12.95;4.40;;;;;;;;;;6117362;23;20242;-91
2023/10/05 20:51:16;;;;;;;11.82;3.90;;;;;;;;;;6117879;23;20195;-93
2023/10/05 20:54:24;;;;;;;11.93;3.38;;;;;;;;;;6117386;23;20435;-92
2023/10/05 20:57:31;;;;;;;11.25;4.05;;;;;;;;;;6100526;23;20541;-92
2023/10/05 21:00:37;;;;;;;10.80;3.75;;;;;;;;;;6101623;23;20174;-90
2023/10/05 21:03:43;;;;;;;9.55;4.05;;;;;;;;;;6116448;23;20190;-93
2023/10/05 21:06:50;;;;;;;10.93;4.55;;;;;;;;;;6116785;23;20186;-92
2023/10/05 21:09:56;;;;;;;11.65;4.53;;;;;;;;;;6117156;23;20228;-93
2023/10/05 21:13:02;;;;;;;8.75;4.13;;;;;;;;;;6102143;23;20170;-92
2023/10/05 21:16:08;;;;;;;11.32;4.10;;;;;;;;;;6121721;23;20191;-91
2023/10/05 21:19:13;;;;;;;9.40;4.22;;;;;;;;;;6116462;23;20182;-93
2023/10/05 21:22:22;;;;;;;9.63;4.43;;;;;;;;;;6116211;23;20170;-93
2023/10/05 21:25:29;;;;;;;14.13;4.70;;;;;;;;;;6117031;23;20284;-91
2023/10/05 21:28:36;;;;;;;9.48;4.15;;;;;;;;;;6099195;23;20166;-93
2023/10/05 21:31:42;;;;;;;16.42;4.40;;;;;;;;;;6115387;23;20189;-91
2023/10/05 21:34:51;;;;;;;9.98;4.13;;;;;;;;;;6116371;23;20165;-91
2023/10/05 21:52:39;;;;;;;9.82;4.13;;;;;;;;;;6115958;23;20214;-92
2023/10/05 21:59:06;;;;;;;8.60;4.30;;;;;;;;;;6101503;23;20242;-94
2023/10/05 22:02:11;;;;;;;8.43;4.57;;;;;;;;;;6101647;23;20219;-92
2023/10/05 22:05:17;;;;;;;12.80;4.85;;;;;;;;;;6099711;23;20193;-92
2023/10/05 22:08:25;;;;;;;9.98;4.25;;;;;;;;;;6101607;23;20215;-93
2023/10/05 22:11:31;;;;;;;10.57;4.60;;;;;;;;;;6098257;23;20149;-92
2023/10/05 22:14:37;;;;;;;10.85;4.32;;;;;;;;;;6098844;23;20625;-93
2023/10/05 22:17:42;;;;;;;10.45;4.68;;;;;;;;;;6097761;23;20222;-96
2023/10/05 22:20:48;;;;;;;11.20;5.13;;;;;;;;;;6099455;23;20173;-93
2023/10/05 22:23:58;;;;;;;12.48;4.82;;;;;;;;;;6099324;23;20174;-92
2023/10/05 22:27:03;;;;;;;9.48;4.40;;;;;;;;;;6097409;23;20153;-95
2023/10/05 22:30:09;;;;;;;11.43;4.75;;;;;;;;;;6098778;23;20153;-92
2023/10/05 22:33:15;;;;;;;12.82;4.72;;;;;;;;;;6096885;23;20169;-93
2023/10/05 22:36:20;;;;;;;14.30;5.13;;;;;;;;;;6097309;23;20222;-94
2023/10/05 22:39:29;;;;;;;12.77;4.40;;;;;;;;;;6100522;23;20153;-92
2023/10/05 22:42:36;;;;;;;9.43;4.15;;;;;;;;;;6118478;23;20242;-92
2023/10/05 22:45:47;;;;;;;8.55;4.43;;;;;;;;;;6101844;23;20186;-92
2023/10/05 22:48:53;;;;;;;8.55;4.20;;;;;;;;;;6102231;23;20191;-93
2023/10/05 22:52:01;;;;;;;12.18;5.13;;;;;;;;;;6101764;23;20214;-93
2023/10/05 22:55:12;;;;;;;10.63;4.75;;;;;;;;;;6101199;23;20170;-92
2023/10/05 22:58:18;;;;;;;13.75;4.10;;;;;;;;;;6099772;23;20162;-92
2023/10/05 23:01:25;;;;;;;10.95;3.97;;;;;;;;;;6101895;23;20169;-94
2023/10/05 23:04:32;;;;;;;9.70;3.72;;;;;;;;;;6099710;23;20218;-95
2023/10/05 23:07:39;;;;;;;13.65;4.20;;;;;;;;;;6099094;23;20158;-92
2023/10/05 23:10:47;;;;;;;8.90;4.32;;;;;;;;;;6103473;23;20173;-90
2023/10/05 23:13:53;;;;;;;8.25;3.65;;;;;;;;;;6103151;23;20211;-92
2023/10/05 23:16:59;;;;;;;6.35;3.65;;;;;;;;;;6099850;23;20178;-93
2023/10/05 23:20:07;;;;;;;10.05;4.22;;;;;;;;;;6098975;23;20219;-91
2023/10/05 23:23:13;;;;;;;11.13;3.95;;;;;;;;;;6098516;23;20498;-94
2023/10/05 23:26:20;;;;;;;10.82;4.20;;;;;;;;;;6097422;23;20197;-91
2023/10/05 23:29:28;;;;;;;9.80;4.60;;;;;;;;;;6097076;23;20173;-96
2023/10/05 23:32:33;;;;;;;9.95;4.60;;;;;;;;;;6099201;23;20217;-91
2023/10/05 23:35:39;;;;;;;10.38;5.07;;;;;;;;;;6099950;23;20210;-93
2023/10/05 23:38:45;;;;;;;8.95;4.50;;;;;;;;;;6097953;23;20294;-92
2023/10/05 23:41:54;;;;;;;12.20;4.70;;;;;;;;;;6098513;23;20154;-93
2023/10/05 23:44:59;;;;;;;9.35;4.35;;;;;;;;;;6097679;23;20203;-92
2023/10/05 23:48:07;;;;;;;9.25;4.38;;;;;;;;;;6098088;23;20223;-93
2023/10/05 23:51:13;;;;;;;14.65;4.57;;;;;;;;;;6098091;23;20177;-93
2023/10/05 23:54:22;;;;;;;11.63;4.55;;;;;;;;;;6095890;23;20214;-94
2023/10/05 23:57:29;;;;;;;11.43;4.80;;;;;;;;;;6096566;23;20249;-93
